Aérodrome :
LOGIN :

S'inscrire | Disclaimer

   EN    FR    IT 

 










Légende :    VFR   VFR Marginal   IFR   IFR Intensif   IFR Très Intensif
Visi : 
Plafond : 
>= 8 km
>= 3000ft
5 à 8 km
1000 à 3000 ft
1500m à 5 km
500 à 1000 ft
800 à 1500m
200 à 500 ft
< 800m
< 200 ft
Symboles :   Orages  Brouillard  Fortes neiges  Fortes précipitations  Vent > 20 kt
SIGMETs :   Divers  Orages  Givrage  Turbulence  Onde Orograph.  Cendres Volcan.







- Altitude de l'aérodrome : 302 ft
- Code IATA : CGN


EDDK - Cologne Bonn

DERNIER METAR :
  • 230820Z 28010KT 250V310 9999 FEW025 BKN050 22/15 Q1015 NOSIG

METARs EXPIRÉS :
  • 230750Z 26010KT 9999 FEW025 BKN050 21/15 Q1015 NOSIG
  • 230720Z 28012KT 250V310 9999 FEW025 BKN050 21/15 Q1015 NOSIG
  • 230650Z 26011KT 9999 FEW028 BKN050 20/14 Q1015 NOSIG
  • 230620Z 28009KT 250V310 9999 SCT026 BKN045 20/14 Q1015 NOSIG
  • 230550Z 28009KT 9999 SCT026 BKN045 20/14 Q1015 NOSIG

TAF TAF EDDK
Valide du 23 à 06h jusqu'au 24 à 12h UTC


230500Z 2306/2412 27007KT 9999 SCT040
TEMPO 2311/2318 28012KT
BECMG 2400/2403 21006KT
BECMG 2407/2409 25011KT
Pas de NOTAMs connus pour ce terrain.



MET'MAP, la Météo Aéronautique d'un coup d'oeil ! - Copyright ORBIFLY Décembre 2007 - Disclaimer

ORBIFLY MET'MAP TEAM :

Programmation & Développement : Alexandra Zaïnal
Conception & Développement : Baudouin d'Aumeries
Co-Programmation & Développement : Marc-Olivier Méhu
Soutien technique & logistique : Manuel Goepfert

Contact : metmap@orbifly.com




SOURCES & CREDITS :

   NOAA